Time;durP1;ratioP1;P1;durP2;ratioP2;P2;SDS_P1;SDS_P2;PMS_P1;PMS_P2;Temp;Humidity;BMP_temperature;BMP_pressure;BME280_temperature;BME280_humidity;BME280_pressure;Samples;Min_cycle;Max_cycle;Signal;HPM_P1;HPM_P2
2022/12/10 00:01:58;;;;;;;40.63;22.65;;;;;;;3.94;62.05;99000.50;5052328;28;20518;-78
2022/12/10 00:04:24;;;;;;;37.83;19.95;;;;;;;3.92;61.92;99000.56;5052220;28;20049;-78
2022/12/10 00:06:50;;;;;;;36.58;20.05;;;;;;;3.90;61.91;98999.81;5052135;28;20136;-78
2022/12/10 00:09:19;;;;;;;32.00;19.05;;;;;;;3.88;62.06;99004.22;5052364;28;20065;-78
2022/12/10 00:11:46;;;;;;;36.20;19.27;;;;;;;3.86;61.84;98998.25;5052253;28;20084;-78
2022/12/10 00:14:13;;;;;;;34.58;20.98;;;;;;;3.83;61.62;99007.03;5052213;28;20084;-78
2022/12/10 00:16:40;;;;;;;33.13;19.95;;;;;;;3.81;61.93;99010.59;5051811;28;20578;-78
2022/12/10 00:19:06;;;;;;;35.60;19.52;;;;;;;3.74;61.48;99016.06;5051986;28;20064;-78
2022/12/10 00:21:35;;;;;;;34.70;18.58;;;;;;;3.70;62.11;99017.09;5051063;28;20091;-78
2022/12/10 00:24:03;;;;;;;35.15;20.25;;;;;;;3.68;61.84;99015.44;5034318;28;20132;-78
2022/12/10 00:26:34;;;;;;;36.47;20.88;;;;;;;3.67;61.92;99014.63;5052001;28;20079;-77
2022/12/10 00:29:02;;;;;;;32.72;19.50;;;;;;;3.65;61.86;99019.03;5043818;28;20080;-78
2022/12/10 00:31:31;;;;;;;40.28;20.98;;;;;;;3.66;62.07;99025.91;5051804;28;20114;-78
2022/12/10 00:34:01;;;;;;;33.17;18.92;;;;;;;3.64;62.19;99028.63;5052009;28;20143;-78
2022/12/10 00:36:38;;;;;;;37.13;20.70;;;;;;;3.62;61.69;99033.00;5051712;28;20083;-79
2022/12/10 00:39:05;;;;;;;35.53;20.13;;;;;;;3.65;62.47;99032.03;5051803;28;20136;-78
2022/12/10 00:41:31;;;;;;;35.45;21.17;;;;;;;3.66;62.28;99038.94;5051576;28;20541;-78
2022/12/10 00:43:58;;;;;;;36.78;21.83;;;;;;;3.68;62.51;99044.94;5051453;28;20060;-78
2022/12/10 00:46:25;;;;;;;36.08;21.73;;;;;;;3.69;61.96;99037.97;5051762;28;20057;-78
2022/12/10 00:48:51;;;;;;;37.25;20.50;;;;;;;3.69;62.03;99044.03;5051569;28;20060;-78
2022/12/10 00:56:50;;;;;;;33.53;19.10;;;;;;;3.63;61.26;99033.88;5030256;28;20505;-83
2022/12/10 00:59:16;;;;;;;31.45;19.00;;;;;;;3.64;61.96;99040.78;5022376;28;20655;-83
2022/12/10 01:01:44;;;;;;;36.92;19.95;;;;;;;3.63;61.97;99039.91;5024341;28;20062;-83
2022/12/10 01:04:16;;;;;;;34.22;20.23;;;;;;;3.61;61.67;99033.06;5033432;28;20061;-83
2022/12/10 01:06:51;;;;;;;36.80;20.60;;;;;;;3.61;61.95;99044.34;5031070;28;20465;-83
2022/12/10 01:09:22;;;;;;;30.90;18.88;;;;;;;3.62;62.09;99037.38;5016349;28;20486;-83
2022/12/10 01:11:50;;;;;;;31.98;17.92;;;;;;;3.61;61.97;99039.13;5016318;28;20103;-83
2022/12/10 01:14:21;;;;;;;33.85;18.83;;;;;;;3.61;61.73;99046.94;5015976;28;20057;-83
2022/12/10 01:16:48;;;;;;;33.08;18.10;;;;;;;3.62;62.15;99050.38;5015655;28;20053;-83
2022/12/10 01:19:16;;;;;;;31.38;17.85;;;;;;;3.60;61.88;99049.59;5015906;28;20065;-83
2022/12/10 01:21:42;;;;;;;34.55;18.95;;;;;;;3.60;61.76;99052.22;5016092;28;20444;-83
2022/12/10 01:24:09;;;;;;;33.72;18.70;;;;;;;3.59;61.67;99051.34;5033372;28;20083;-83
2022/12/10 01:26:36;;;;;;;33.80;19.67;;;;;;;3.57;61.86;99053.19;5032855;28;20050;-83
2022/12/10 01:29:04;;;;;;;31.10;18.33;;;;;;;3.56;61.93;99054.09;5033183;28;20053;-83
2022/12/10 01:31:36;;;;;;;36.08;19.10;;;;;;;3.52;61.38;99055.94;5015166;28;20064;-83
2022/12/10 01:34:05;;;;;;;31.90;19.20;;;;;;;3.51;61.69;99051.66;5016020;28;20478;-83
2022/12/10 01:36:38;;;;;;;30.92;18.50;;;;;;;3.49;61.90;99055.22;5031854;28;20104;-83
2022/12/10 01:39:10;;;;;;;31.90;17.63;;;;;;;3.48;61.56;99050.94;5015168;28;20089;-83
2022/12/10 01:41:42;;;;;;;34.70;18.90;;;;;;;3.46;61.82;99061.41;5015150;28;20053;-83
2022/12/10 01:44:08;;;;;;;30.48;18.67;;;;;;;3.49;62.29;99056.09;5033072;28;20060;-83
2022/12/10 01:46:40;;;;;;;33.08;19.70;;;;;;;3.49;61.76;99068.25;5032654;28;20103;-83
2022/12/10 01:49:17;;;;;;;38.58;20.67;;;;;;;3.51;61.79;99062.06;5015310;28;20191;-83
2022/12/10 01:51:46;;;;;;;37.15;21.67;;;;;;;3.54;61.61;99066.31;5032500;28;20127;-83
2022/12/10 01:54:17;;;;;;;35.45;20.15;;;;;;;3.55;62.09;99059.34;5032470;28;20085;-83
2022/12/10 01:56:47;;;;;;;38.88;22.23;;;;;;;3.55;61.83;99057.59;5032799;28;20460;-83
2022/12/10 01:59:14;;;;;;;37.92;20.80;;;;;;;3.58;62.14;99061.81;5014806;28;20168;-82
2022/12/10 02:01:46;;;;;;;34.65;20.00;;;;;;;3.58;61.53;99061.81;5014765;28;20401;-83
2022/12/10 02:04:40;;;;;;;32.03;19.00;;;;;;;3.58;61.11;99067.88;5032706;28;20053;-84
2022/12/10 02:07:16;;;;;;;30.90;18.33;;;;;;;3.59;61.39;99066.97;5011519;28;20508;-83
2022/12/10 02:09:56;;;;;;;33.15;18.13;;;;;;;3.58;61.38;99070.47;5029102;28;20069;-83
2022/12/10 02:12:43;;;;;;;35.80;19.50;;;;;;;3.57;61.12;99073.13;5032726;28;20053;-83
2022/12/10 02:15:13;;;;;;;33.97;20.02;;;;;;;3.57;61.40;99073.13;5014730;28;20092;-84
2022/12/10 02:17:47;;;;;;;34.45;20.88;;;;;;;3.51;60.60;99067.28;5014807;28;20103;-84
2022/12/10 02:20:24;;;;;;;31.70;19.35;;;;;;;3.48;61.06;99069.97;5014975;28;20175;-84
2022/12/10 02:22:56;;;;;;;34.35;18.02;;;;;;;3.45;61.05;99069.28;5014442;28;20057;-83
2022/12/10 02:25:39;;;;;;;28.52;17.58;;;;;;;3.38;61.40;99066.91;5031692;28;20145;-83
2022/12/10 02:28:13;;;;;;;;;;;;;;;3.42;61.75;99070.22;5031412;28;20108;-83
2022/12/10 02:30:41;;;;;;;;;;;;;;;3.46;61.63;99061.41;5015237;28;19921;-83
2022/12/10 02:33:08;;;;;;;25.02;13.45;;;;;;;3.49;61.89;99060.44;5032220;28;19983;-84
2022/12/10 02:35:38;;;;;;;26.75;15.02;;;;;;;3.46;61.54;99069.22;5031833;28;20057;-84
2022/12/10 02:38:12;;;;;;;24.38;15.02;;;;;;;3.45;61.41;99077.94;5031115;28;20116;-84
2022/12/10 02:40:46;;;;;;;25.60;16.23;;;;;;;3.43;61.20;99069.31;5014548;28;20493;-84
2022/12/10 02:43:21;;;;;;;28.80;16.38;;;;;;;3.44;61.11;99073.59;5032163;28;20092;-84
2022/12/10 02:45:49;;;;;;;29.40;17.23;;;;;;;3.46;61.82;99069.22;5035027;28;20401;-84
2022/12/10 02:48:18;;;;;;;29.65;16.70;;;;;;;3.47;61.75;99076.09;5018413;28;20116;-84
2022/12/10 02:50:53;;;;;;;24.08;14.80;;;;;;;3.46;61.08;99073.56;5034873;28;20073;-84
2022/12/10 02:53:19;;;;;;;24.20;15.20;;;;;;;3.48;61.57;99077.78;5018825;28;20478;-84
2022/12/10 02:55:51;;;;;;;29.23;16.58;;;;;;;3.46;60.59;99077.00;5018335;28;20077;-84
2022/12/10 02:58:22;;;;;;;25.88;15.73;;;;;;;3.46;60.64;99084.81;5034942;28;20100;-84
2022/12/10 03:01:35;;;;;;;23.52;13.25;;;;;;;3.41;60.84;99076.34;5035743;28;20119;-84
2022/12/10 03:04:14;;;;;;;20.47;12.20;;;;;;;3.43;60.63;99071.09;4974559;28;20083;-84
2022/12/10 03:06:52;;;;;;;22.40;13.40;;;;;;;3.42;61.13;99074.59;5034652;28;20073;-84
2022/12/10 03:09:27;;;;;;;24.20;13.93;;;;;;;3.42;61.52;99074.59;5034373;28;20062;-84
2022/12/10 03:12:02;;;;;;;21.08;12.95;;;;;;;3.42;61.54;99074.59;5035557;28;20049;-84
2022/12/10 03:14:31;;;;;;;24.58;13.38;;;;;;;3.44;61.81;99072.78;5034569;28;20049;-84
2022/12/10 03:17:00;;;;;;;23.73;14.18;;;;;;;3.44;61.54;99065.81;5018107;28;20383;-84
2022/12/10 03:19:34;;;;;;;22.73;13.35;;;;;;;3.44;61.11;99068.41;5034531;28;20065;-85
2022/12/10 03:22:04;;;;;;;19.70;12.48;;;;;;;3.45;61.13;99070.13;5035965;28;20057;-83
2022/12/10 03:24:33;;;;;;;23.00;13.85;;;;;;;3.44;60.87;99075.38;5017689;28;20121;-83
2022/12/10 03:27:01;;;;;;;19.90;13.23;;;;;;;3.45;61.62;99067.53;5034217;28;20417;-83
2022/12/10 03:29:35;;;;;;;22.85;13.48;;;;;;;3.43;60.70;99069.31;5018043;28;20064;-83
2022/12/10 03:32:02;;;;;;;23.83;14.50;;;;;;;3.45;61.36;99061.47;5017563;28;20053;-83
2022/12/10 03:34:32;;;;;;;22.85;13.95;;;;;;;3.43;60.77;99058.91;5035302;28;20050;-83
2022/12/10 03:36:59;;;;;;;22.77;14.30;;;;;;;3.44;61.18;99055.41;5017504;28;20104;-83
2022/12/10 03:39:26;;;;;;;25.52;15.02;;;;;;;3.43;61.00;99058.09;5035565;28;20060;-83
2022/12/10 03:41:53;;;;;;;22.27;13.73;;;;;;;3.41;61.12;99059.88;5017593;28;20127;-83
2022/12/10 03:44:30;;;;;;;23.02;14.32;;;;;;;3.37;60.12;99049.59;5017341;28;20054;-83
2022/12/10 03:46:57;;;;;;;28.25;15.85;;;;;;;3.39;60.69;99049.53;5035330;28;20057;-83
2022/12/10 03:49:24;;;;;;;26.10;15.10;;;;;;;3.35;60.79;99051.41;5035020;28;20092;-83
2022/12/10 03:51:51;;;;;;;23.55;14.60;;;;;;;3.33;61.13;99055.00;5017493;28;20103;-83
2022/12/10 03:54:17;;;;;;;27.38;16.00;;;;;;;3.31;61.40;99055.03;5034695;28;20391;-83
2022/12/10 03:56:44;;;;;;;23.77;14.73;;;;;;;3.28;60.72;99051.72;5034759;28;20053;-83
2022/12/10 03:59:18;;;;;;;26.30;15.35;;;;;;;3.23;60.11;99051.88;5017411;28;20103;-83
2022/12/10 04:01:44;;;;;;;25.70;16.08;;;;;;;3.21;60.65;99049.34;5034961;28;20065;-83
2022/12/10 04:04:11;;;;;;;25.52;15.02;;;;;;;3.17;60.81;99058.16;5017093;28;20041;-83
2022/12/10 04:06:40;;;;;;;28.30;16.13;;;;;;;3.11;60.35;99054.03;5034379;28;20057;-83
2022/12/10 04:09:13;;;;;;;28.15;15.32;;;;;;;3.05;60.39;99059.47;5016956;28;20056;-83
2022/12/10 04:11:40;;;;;;;23.13;14.13;;;;;;;3.02;60.74;99056.16;5034766;28;20184;-83
2022/12/10 04:16:57;;;;;;;23.60;14.57;;;;;;;2.95;60.48;99071.13;5034468;28;20061;-83
2022/12/10 04:19:24;;;;;;;24.83;14.43;;;;;;;2.93;60.80;99071.19;5017113;28;20494;-83
2022/12/10 04:27:27;;;;;;;27.58;16.75;;;;;;;2.92;61.56;99072.06;5034360;28;20408;-83
2022/12/10 04:29:56;;;;;;;27.77;16.83;;;;;;;2.93;61.24;99071.19;5034650;28;20103;-83
2022/12/10 04:32:24;;;;;;;29.08;16.35;;;;;;;2.95;61.19;99066.75;5033030;28;20054;-83
2022/12/10 04:34:51;;;;;;;26.20;16.23;;;;;;;2.94;60.88;99067.66;5016645;28;20077;-83
2022/12/10 04:37:18;;;;;;;26.50;16.30;;;;;;;2.95;61.00;99060.72;5032653;28;20057;-83
2022/12/10 04:39:46;;;;;;;27.42;16.90;;;;;;;2.93;60.94;99065.97;5034085;28;20093;-83
2022/12/10 04:42:12;;;;;;;28.10;16.35;;;;;;;2.92;60.83;99056.47;5033925;28;20108;-83
2022/12/10 04:44:40;;;;;;;26.15;15.80;;;;;;;2.90;61.05;99058.28;5033650;28;20076;-83
2022/12/10 04:47:09;;;;;;;26.42;14.95;;;;;;;2.89;61.00;99064.41;5016041;28;20081;-83
2022/12/10 04:49:36;;;;;;;23.58;14.40;;;;;;;2.87;61.09;99063.59;5033639;28;20111;-83
2022/12/10 04:52:03;;;;;;;24.60;15.73;;;;;;;2.86;60.86;99061.91;5034084;28;20061;-83
2022/12/10 04:54:30;;;;;;;26.40;15.82;;;;;;;2.84;61.00;99063.72;5033675;28;20057;-83
2022/12/10 04:57:04;;;;;;;25.77;15.73;;;;;;;2.84;61.21;99063.72;5032429;28;20057;-83
2022/12/10 04:59:31;;;;;;;30.13;17.65;;;;;;;2.83;61.61;99069.81;5016452;28;20057;-83
2022/12/10 05:01:58;;;;;;;28.23;16.58;;;;;;;2.81;60.96;99063.81;5016047;28;20069;-83
2022/12/10 05:04:25;;;;;;;24.13;15.95;;;;;;;2.80;61.32;99070.75;5016255;28;20104;-83
2022/12/10 05:06:52;;;;;;;29.52;17.08;;;;;;;2.80;61.24;99072.53;5032820;28;20063;-83
2022/12/10 05:09:18;;;;;;;25.60;16.08;;;;;;;2.79;61.47;99076.00;5015725;28;20068;-83
2022/12/10 05:11:45;;;;;;;24.48;15.35;;;;;;;2.78;61.46;99072.59;5016142;28;20061;-83
2022/12/10 05:14:12;;;;;;;24.90;16.13;;;;;;;2.77;61.28;99076.09;5033427;28;20057;-83
2022/12/10 05:16:39;;;;;;;25.95;16.80;;;;;;;2.77;61.31;99072.63;5033135;28;20054;-83
2022/12/10 05:19:05;;;;;;;25.42;15.88;;;;;;;2.78;61.48;99074.31;5033655;28;20599;-83
2022/12/10 05:24:18;;;;;;;25.40;15.32;;;;;;;2.78;61.38;99074.31;5033344;28;20512;-83
2022/12/10 05:26:50;;;;;;;25.45;16.20;;;;;;;2.78;61.14;99076.91;5032051;28;20445;-83
2022/12/10 05:29:18;;;;;;;26.95;15.25;;;;;;;2.79;61.63;99076.00;5015606;28;20497;-83
2022/12/10 05:31:46;;;;;;;23.63;14.38;;;;;;;2.78;61.20;99071.72;5032144;28;20486;-83
2022/12/10 05:34:12;;;;;;;25.23;16.10;;;;;;;2.79;61.42;99074.28;5033245;28;20112;-83
2022/12/10 05:36:40;;;;;;;24.27;15.00;;;;;;;2.79;61.41;99078.63;5015247;28;20084;-83
2022/12/10 05:39:07;;;;;;;25.88;15.90;;;;;;;2.79;61.36;99076.00;5015784;28;20053;-83
2022/12/10 05:41:37;;;;;;;25.63;15.43;;;;;;;2.74;60.72;99074.44;5032890;28;20069;-83
2022/12/10 05:44:05;;;;;;;25.25;15.10;;;;;;;2.71;60.55;99071.97;5015255;28;20053;-83
2022/12/10 05:46:33;;;;;;;25.67;15.57;;;;;;;2.66;60.46;99079.06;5031540;28;20061;-83
2022/12/10 05:49:03;;;;;;;23.88;15.35;;;;;;;2.63;60.55;99083.50;5045945;28;20077;-83
2022/12/10 05:51:32;;;;;;;21.80;13.90;;;;;;;2.57;61.12;99087.16;5031745;28;20067;-83
2022/12/10 05:54:01;;;;;;;23.75;15.27;;;;;;;2.53;61.27;99083.84;5032534;28;20053;-83
2022/12/10 05:56:36;;;;;;;25.65;14.80;;;;;;;2.50;60.60;99085.69;5032342;28;20144;-83
2022/12/10 05:59:04;;;;;;;24.25;15.95;;;;;;;2.50;61.44;99089.13;5032583;28;20068;-83
2022/12/10 06:01:34;;;;;;;26.10;16.85;;;;;;;2.50;61.38;99091.72;5032697;28;20468;-83
2022/12/10 06:04:03;;;;;;;29.17;16.88;;;;;;;2.51;61.58;99088.25;5014986;28;20057;-83
2022/12/10 06:06:34;;;;;;;26.52;16.20;;;;;;;2.52;61.46;99099.47;5031261;28;20111;-83
2022/12/10 06:09:00;;;;;;;24.80;16.52;;;;;;;2.53;61.41;99094.22;5031149;28;20103;-83
2022/12/10 06:11:27;;;;;;;28.42;17.50;;;;;;;2.54;61.18;99092.50;5014985;28;20065;-83
2022/12/10 06:13:58;;;;;;;25.83;16.88;;;;;;;2.53;61.21;99094.22;5032531;28;20057;-83
2022/12/10 06:16:26;;;;;;;24.40;16.27;;;;;;;2.54;61.52;99095.09;5032311;28;20127;-83
2022/12/10 06:18:52;;;;;;;24.65;16.55;;;;;;;2.54;61.13;99095.09;5013990;28;20413;-84
2022/12/10 06:21:22;;;;;;;27.30;16.60;;;;;;;2.52;61.12;99092.53;5031316;28;20489;-83
2022/12/10 06:23:51;;;;;;;25.30;15.98;;;;;;;2.53;61.16;99095.97;5032413;28;20089;-83
2022/12/10 06:26:22;;;;;;;25.42;15.60;;;;;;;2.51;60.96;99096.06;5030920;28;20084;-83
2022/12/10 06:28:49;;;;;;;25.83;15.45;;;;;;;2.52;61.09;99096.88;5014829;28;20115;-83
2022/12/10 06:31:18;;;;;;;23.80;15.20;;;;;;;2.51;61.27;99090.00;5014375;28;20065;-83
2022/12/10 06:33:46;;;;;;;25.50;16.52;;;;;;;2.50;61.16;99091.72;5032317;28;20060;-83
2022/12/10 06:36:14;;;;;;;24.38;15.55;;;;;;;2.47;60.77;99094.47;5031991;28;20555;-83
2022/12/10 06:38:41;;;;;;;23.83;15.27;;;;;;;2.46;60.95;99103.13;5031446;28;21036;-83
2022/12/10 06:41:12;;;;;;;26.25;15.23;;;;;;;2.42;60.83;99102.38;5033775;28;20049;-83
2022/12/10 06:43:39;;;;;;;25.33;15.32;;;;;;;2.41;61.15;99105.91;5030919;28;20049;-83
2022/12/10 06:46:07;;;;;;;24.70;15.43;;;;;;;2.38;60.90;99102.53;5014735;28;20057;-83
2022/12/10 06:48:35;;;;;;;24.13;14.90;;;;;;;2.35;60.85;99108.69;5014468;28;20508;-83
2022/12/10 06:51:03;;;;;;;22.13;14.65;;;;;;;2.34;61.05;99114.78;5030600;28;20058;-83
2022/12/10 06:56:17;;;;;;;25.50;15.52;;;;;;;2.25;60.89;99107.31;4973288;23;20057;-77
2022/12/10 06:58:44;;;;;;;24.42;15.50;;;;;;;2.24;61.26;99113.41;5009592;28;20109;-78
2022/12/10 07:01:25;;;;;;;23.55;15.02;;;;;;;2.21;61.15;99114.34;5009660;28;20446;-79
2022/12/10 07:03:55;;;;;;;22.73;13.98;;;;;;;2.17;61.35;99120.56;5009660;28;20053;-78
2022/12/10 07:06:23;;;;;;;25.23;14.50;;;;;;;2.13;60.80;99124.97;5009253;28;20085;-78
2022/12/10 07:08:50;;;;;;;23.95;14.98;;;;;;;2.08;61.17;99121.69;5009383;28;20089;-78
2022/12/10 07:11:20;;;;;;;21.80;13.68;;;;;;;2.04;61.09;99117.50;5009513;28;20093;-78
2022/12/10 07:13:47;;;;;;;23.70;15.05;;;;;;;2.02;61.10;99116.69;4991823;28;20512;-78
2022/12/10 07:16:22;;;;;;;24.17;14.65;;;;;;;1.98;60.56;99115.94;5009255;28;20088;-78
2022/12/10 07:18:50;;;;;;;24.10;13.70;;;;;;;1.97;61.25;99126.38;5009151;28;20085;-78
2022/12/10 07:21:23;;;;;;;26.52;15.60;;;;;;;1.93;61.35;99126.47;5009477;28;20069;-78
2022/12/10 07:23:57;;;;;;;23.27;14.65;;;;;;;1.92;60.90;99129.13;5009370;28;20096;-78
2022/12/10 07:26:25;;;;;;;21.40;13.68;;;;;;;1.92;61.10;99129.13;5009269;28;20080;-79
2022/12/10 07:28:51;;;;;;;21.77;13.98;;;;;;;1.90;61.38;99125.72;5009087;28;20053;-78
2022/12/10 07:31:21;;;;;;;21.80;14.38;;;;;;;1.87;60.73;99129.25;5011961;28;20058;-78
2022/12/10 07:33:50;;;;;;;23.13;14.32;;;;;;;1.85;60.71;99135.38;5012816;28;20523;-78
2022/12/10 07:36:16;;;;;;;23.00;14.02;;;;;;;1.82;61.27;99137.19;5012709;28;20487;-79
2022/12/10 07:38:43;;;;;;;21.65;13.75;;;;;;;1.78;60.78;99133.00;4995283;28;20081;-78
2022/12/10 07:41:12;;;;;;;22.80;14.68;;;;;;;1.76;61.28;99132.19;5012715;28;20128;-79
2022/12/10 07:43:40;;;;;;;24.83;14.52;;;;;;;1.77;61.05;99135.63;5013085;28;20085;-79
2022/12/10 07:46:09;;;;;;;22.52;14.00;;;;;;;1.73;61.25;99137.47;5012448;28;20077;-78
2022/12/10 07:48:37;;;;;;;25.50;15.55;;;;;;;1.73;61.39;99140.06;5012701;28;20062;-78
2022/12/10 07:51:04;;;;;;;22.83;15.13;;;;;;;1.71;61.33;99139.25;4995040;28;20595;-78
2022/12/10 07:53:31;;;;;;;28.20;15.55;;;;;;;1.73;61.89;99147.88;5012557;28;20057;-78
2022/12/10 07:55:57;;;;;;;21.77;13.90;;;;;;;1.73;61.57;99139.22;5012390;28;20054;-78
2022/12/10 07:58:24;;;;;;;22.48;14.93;;;;;;;1.73;61.40;99144.41;5012260;28;20062;-78
2022/12/10 08:00:50;;;;;;;23.65;14.73;;;;;;;1.72;61.21;99155.69;5012799;28;20077;-77
2022/12/10 08:03:17;;;;;;;24.40;15.18;;;;;;;1.71;61.32;99157.41;5012394;28;20066;-78
2022/12/10 08:05:43;;;;;;;26.48;16.65;;;;;;;1.68;61.68;99150.59;5012195;28;20057;-78
2022/12/10 08:08:09;;;;;;;25.83;15.95;;;;;;;1.66;61.64;99155.00;5012189;28;20145;-78
2022/12/10 08:10:37;;;;;;;26.55;16.15;;;;;;;1.65;61.44;99153.25;5012270;28;20062;-78
2022/12/10 08:13:04;;;;;;;25.00;15.93;;;;;;;1.64;61.64;99155.94;5011977;28;20125;-78
2022/12/10 08:15:31;;;;;;;23.88;14.95;;;;;;;1.65;61.80;99162.81;5012254;28;20137;-78
2022/12/10 08:17:58;;;;;;;24.55;15.38;;;;;;;1.66;61.79;99165.38;5012376;28;20097;-78
2022/12/10 08:20:25;;;;;;;23.30;14.00;;;;;;;1.68;61.96;99157.50;4994664;28;20112;-78
2022/12/10 08:22:51;;;;;;;25.65;15.65;;;;;;;1.73;62.63;99165.16;5011889;28;20476;-78
2022/12/10 08:25:18;;;;;;;23.55;14.82;;;;;;;1.77;62.52;99167.63;5011674;28;20870;-78
2022/12/10 08:27:44;;;;;;;23.92;14.88;;;;;;;1.83;62.97;99171.75;5011598;28;20555;-78
2022/12/10 08:30:11;;;;;;;24.13;14.85;;;;;;;1.89;62.82;99174.19;5012079;28;20536;-78
2022/12/10 08:32:37;;;;;;;25.95;16.10;;;;;;;1.95;62.71;99173.16;5011975;28;20054;-78
2022/12/10 08:35:04;;;;;;;25.83;16.25;;;;;;;2.01;62.39;99180.75;5011545;28;20591;-77
2022/12/10 08:37:30;;;;;;;27.83;16.13;;;;;;;2.07;62.62;99184.91;5011946;28;20492;-78
2022/12/10 08:39:56;;;;;;;27.38;16.77;;;;;;;2.13;62.10;99181.25;5011690;28;20085;-78
2022/12/10 08:42:22;;;;;;;25.05;15.88;;;;;;;2.16;61.85;99183.75;5010528;28;20085;-78
2022/12/10 08:44:50;;;;;;;27.10;17.25;;;;;;;2.19;62.12;99181.91;5011224;28;20480;-78
2022/12/10 08:47:16;;;;;;;27.55;16.85;;;;;;;2.21;61.78;99181.88;5011354;28;20916;-78
2022/12/10 08:49:43;;;;;;;26.67;16.30;;;;;;;2.24;61.67;99193.91;5011494;28;20154;-79
2022/12/10 08:52:09;;;;;;;26.45;16.83;;;;;;;2.25;61.47;99187.81;5011428;28;20768;-78
2022/12/10 08:54:35;;;;;;;30.92;18.25;;;;;;;2.27;61.50;99193.78;5011119;28;20141;-78
2022/12/10 08:57:02;;;;;;;26.70;17.17;;;;;;;2.30;62.14;99194.56;5011006;28;20084;-78
2022/12/10 08:59:28;;;;;;;25.67;16.50;;;;;;;2.31;61.73;99192.78;5011430;28;20092;-78
2022/12/10 09:01:55;;;;;;;31.52;17.65;;;;;;;2.33;61.15;99199.63;4993951;28;20467;-78
2022/12/10 09:04:22;;;;;;;28.10;17.83;;;;;;;2.36;61.56;99198.72;5011303;28;20057;-78
2022/12/10 09:06:48;;;;;;;28.33;18.23;;;;;;;2.38;61.74;99191.72;5010894;28;20145;-77
2022/12/10 09:09:14;;;;;;;28.27;17.02;;;;;;;2.38;61.52;99207.28;5010904;28;20057;-78
2022/12/10 09:11:41;;;;;;;28.58;18.48;;;;;;;2.38;61.53;99207.28;5011060;28;20407;-78
2022/12/10 09:14:07;;;;;;;27.20;17.92;;;;;;;2.40;61.35;99220.25;5011125;28;20081;-78
2022/12/10 09:16:36;;;;;;;32.22;19.50;;;;;;;2.40;61.71;99215.91;5010692;28;20177;-78
2022/12/10 09:19:03;;;;;;;32.20;19.70;;;;;;;2.43;62.17;99217.56;5003243;28;20137;-78
2022/12/10 09:21:30;;;;;;;31.83;19.38;;;;;;;2.48;62.11;99226.03;4993439;28;20463;-78
2022/12/10 09:23:57;;;;;;;30.10;19.33;;;;;;;2.52;61.88;99232.84;5010651;28;20108;-78
2022/12/10 09:26:24;;;;;;;31.80;20.55;;;;;;;2.56;61.64;99225.78;5010930;28;20325;-78
2022/12/10 09:28:52;;;;;;;29.95;19.92;;;;;;;2.60;62.14;99229.97;5010444;28;20141;-78
2022/12/10 09:31:19;;;;;;;31.48;19.63;;;;;;;2.63;62.08;99224.69;5010768;28;20175;-78
2022/12/10 09:33:48;;;;;;;31.00;18.85;;;;;;;2.67;61.79;99223.69;5010970;28;20562;-78
2022/12/10 09:36:15;;;;;;;31.65;20.63;;;;;;;2.71;61.95;99227.88;5010423;28;20058;-78
2022/12/10 09:38:44;;;;;;;31.80;20.92;;;;;;;2.75;61.43;99228.63;4992901;28;20520;-78
2022/12/10 09:41:10;;;;;;;31.88;20.00;;;;;;;2.79;61.44;99221.56;5010743;28;20109;-78
2022/12/10 09:43:56;;;;;;;34.45;20.73;;;;;;;2.79;60.72;99222.44;5010569;28;20085;-78
2022/12/10 09:46:51;;;;;;;32.05;20.27;;;;;;;2.81;60.82;99223.22;5010384;28;20357;-78
2022/12/10 09:49:41;;;;;;;32.55;20.58;;;;;;;2.84;61.08;99219.69;5004689;28;20145;-78
2022/12/10 09:52:17;;;;;;;33.15;20.55;;;;;;;2.84;60.39;99224.88;5010482;28;20535;-78
2022/12/10 09:54:48;;;;;;;31.30;21.13;;;;;;;2.85;61.27;99230.00;5009953;28;20148;-78
2022/12/10 09:57:28;;;;;;;36.75;21.88;;;;;;;2.83;60.50;99226.63;4992543;28;20136;-78
2022/12/10 09:59:56;;;;;;;32.13;20.85;;;;;;;2.83;60.79;99225.75;5010371;28;20049;-78
2022/12/10 10:02:31;;;;;;;34.30;21.10;;;;;;;2.81;61.02;99223.22;5010334;28;20085;-78
2022/12/10 10:05:06;;;;;;;34.35;21.63;;;;;;;2.79;60.37;99227.63;5009985;28;20116;-78
2022/12/10 10:07:41;;;;;;;33.08;21.15;;;;;;;2.79;60.60;99229.38;4992751;28;20093;-77
2022/12/10 10:10:21;;;;;;;35.45;21.73;;;;;;;2.78;60.41;99227.66;5003169;28;20049;-78
2022/12/10 10:12:48;;;;;;;34.28;20.88;;;;;;;2.81;61.00;99222.38;5010157;28;20186;-78
2022/12/10 10:15:18;;;;;;;34.67;21.80;;;;;;;2.83;61.41;99230.97;5010440;28;20534;-78
2022/12/10 10:17:46;;;;;;;33.83;21.42;;;;;;;2.88;61.23;99233.41;4992421;28;20145;-78
2022/12/10 10:20:14;;;;;;;33.83;21.45;;;;;;;2.92;61.73;99225.44;5009860;28;20137;-78
2022/12/10 10:22:40;;;;;;;33.85;21.67;;;;;;;2.97;61.39;99226.16;5009926;28;20136;-78
2022/12/10 10:25:17;;;;;;;34.28;22.08;;;;;;;3.03;60.48;99222.47;5009743;28;20189;-78
2022/12/10 10:27:44;;;;;;;36.08;20.90;;;;;;;3.09;61.01;99227.47;5009692;28;20504;-78
2022/12/10 10:30:18;;;;;;;35.33;22.05;;;;;;;3.13;60.68;99231.69;5009828;28;20053;-78
2022/12/10 10:32:48;;;;;;;35.38;22.02;;;;;;;3.20;60.87;99224.50;5009875;28;20096;-78
2022/12/10 10:35:33;;;;;;;33.42;21.30;;;;;;;3.23;60.40;99224.41;5010109;28;20100;-78
2022/12/10 10:38:06;;;;;;;40.53;25.05;;;;;;;3.26;60.06;99226.06;5009864;28;20092;-78
2022/12/10 10:40:40;;;;;;;38.65;24.25;;;;;;;3.29;60.28;99225.09;4992299;28;20140;-78
2022/12/10 10:43:20;;;;;;;36.45;22.55;;;;;;;3.31;60.33;99221.53;5002429;28;20053;-78
2022/12/10 10:46:06;;;;;;;36.08;22.60;;;;;;;3.33;59.98;99217.09;5009637;28;20053;-78
2022/12/10 10:48:32;;;;;;;35.65;22.13;;;;;;;3.39;61.27;99219.50;5009552;28;20409;-78
2022/12/10 10:51:06;;;;;;;37.15;23.13;;;;;;;3.41;59.94;99219.44;5009534;28;20140;-79
2022/12/10 10:53:43;;;;;;;33.88;22.80;;;;;;;3.46;59.84;99224.47;5009389;28;20138;-79
2022/12/10 10:56:11;;;;;;;35.78;21.85;;;;;;;3.52;61.10;99222.50;5002476;28;20132;-78
2022/12/10 10:58:50;;;;;;;35.90;23.75;;;;;;;3.56;59.49;99225.84;5009610;28;20516;-79
2022/12/10 11:01:16;;;;;;;41.97;24.65;;;;;;;3.63;60.63;99236.88;4992465;28;20116;-79
2022/12/10 11:03:49;;;;;;;35.50;22.20;;;;;;;3.64;60.21;99234.22;5009473;28;20136;-79
2022/12/10 11:06:16;;;;;;;36.95;23.70;;;;;;;3.70;60.80;99233.13;5012175;28;20116;-79
2022/12/10 11:08:45;;;;;;;38.55;24.52;;;;;;;3.72;59.76;99228.72;5013400;28;20150;-78
2022/12/10 11:11:19;;;;;;;36.05;23.95;;;;;;;3.71;59.37;99224.44;5013535;28;20539;-79
2022/12/10 11:13:45;;;;;;;41.55;25.48;;;;;;;3.72;60.08;99226.13;5013461;28;20430;-79
2022/12/10 11:16:14;;;;;;;36.20;23.45;;;;;;;3.72;59.62;99220.06;5013240;28;20057;-79
2022/12/10 11:18:51;;;;;;;35.70;23.52;;;;;;;3.74;60.17;99228.69;5012962;28;20061;-79
2022/12/10 11:21:21;;;;;;;32.50;21.33;;;;;;;3.76;60.05;99221.66;5013490;28;20053;-79
2022/12/10 11:23:52;;;;;;;38.92;24.98;;;;;;;3.82;60.07;99225.78;5013419;28;20057;-79
2022/12/10 11:26:48;;;;;;;39.80;24.13;;;;;;;3.89;59.98;99224.66;5012889;28;20108;-79
2022/12/10 11:29:30;;;;;;;39.33;24.15;;;;;;;4.08;59.48;99227.41;5012920;28;20089;-79
2022/12/10 11:32:20;;;;;;;39.80;25.25;;;;;;;4.29;60.02;99223.09;5013152;28;20089;-79
2022/12/10 11:35:14;;;;;;;43.90;26.10;;;;;;;4.53;59.25;99216.97;5012939;28;20156;-78
2022/12/10 11:38:10;;;;;;;38.78;24.63;;;;;;;4.81;60.75;99221.88;5012734;28;20472;-78
2022/12/10 11:41:06;;;;;;;41.00;25.80;;;;;;;5.25;61.47;99217.44;5012812;28;20603;-79
2022/12/10 11:44:08;;;;;;;42.05;26.73;;;;;;;5.84;62.88;99211.34;5012557;28;20085;-79
2022/12/10 11:46:49;;;;;;;40.70;27.48;;;;;;;6.49;62.55;99203.09;4978912;28;20097;-79
2022/12/10 11:49:52;;;;;;;41.10;28.02;;;;;;;7.14;60.47;99206.00;5006777;28;20137;-79
2022/12/10 11:52:28;;;;;;;39.88;25.92;;;;;;;7.77;59.23;99200.94;5001454;28;20089;-80
2022/12/10 11:55:07;;;;;;;38.00;26.80;;;;;;;8.28;58.40;99203.41;5012341;28;20237;-79
2022/12/10 11:58:07;;;;;;;36.53;26.23;;;;;;;8.75;57.62;99199.94;5012830;28;20058;-79
2022/12/10 12:00:47;;;;;;;34.97;24.65;;;;;;;9.12;55.38;99195.13;4984444;28;20060;-78
2022/12/10 12:03:51;;;;;;;36.00;24.73;;;;;;;9.35;52.72;99204.25;5012285;28;20089;-79